createdAt,value
2019-04-07T00:01:43.435Z,97.10
2019-04-07T00:03:46.200Z,97.30
2019-04-07T00:05:49.410Z,97.50
2019-04-07T00:07:52.261Z,97.60
2019-04-07T00:09:55.077Z,97.70
2019-04-07T00:11:58.233Z,97.70
2019-04-07T00:14:01.058Z,97.60
2019-04-07T00:16:04.549Z,97.90
2019-04-07T00:18:07.785Z,97.90
2019-04-07T00:20:10.946Z,98.00
2019-04-07T00:22:13.754Z,98.20
2019-04-07T00:24:16.666Z,97.90
2019-04-07T00:26:19.551Z,97.40
2019-04-07T00:28:22.377Z,97.60
2019-04-07T00:30:25.229Z,97.80
2019-04-07T00:32:28.439Z,97.80
2019-04-07T00:34:31.274Z,98.00
2019-04-07T00:36:34.197Z,97.90
2019-04-07T00:38:37.134Z,97.90
2019-04-07T00:40:40.396Z,98.10
2019-04-07T00:42:43.229Z,98.20
2019-04-07T00:44:46.576Z,98.10
2019-04-07T00:46:49.908Z,98.20
2019-04-07T00:48:52.945Z,98.30
2019-04-07T00:50:55.915Z,98.30
2019-04-07T00:52:59.217Z,98.10
2019-04-07T00:55:02.311Z,97.90
2019-04-07T00:57:05.437Z,98.20
2019-04-07T00:59:08.790Z,98.30
2019-04-07T01:01:13.251Z,98.30
2019-04-07T01:03:16.078Z,98.50
2019-04-07T01:05:18.896Z,98.50
2019-04-07T01:07:21.771Z,98.50
2019-04-07T01:09:24.561Z,98.40
2019-04-07T01:11:27.682Z,98.30
2019-04-07T01:13:30.777Z,98.40
2019-04-07T01:15:33.985Z,98.50
2019-04-07T01:17:37.005Z,98.80
2019-04-07T01:19:40.013Z,98.80
2019-04-07T01:21:42.800Z,98.60
2019-04-07T01:23:45.680Z,98.80
2019-04-07T01:25:48.537Z,98.80
2019-04-07T01:27:51.335Z,98.50
2019-04-07T01:29:54.202Z,98.50
2019-04-07T01:31:56.944Z,98.80
2019-04-07T01:33:59.826Z,99.00
2019-04-07T01:36:02.551Z,98.90
2019-04-07T01:38:05.919Z,98.90
2019-04-07T01:40:09.128Z,98.70
2019-04-07T01:42:31.911Z,98.80
2019-04-07T01:44:42.338Z,99.00
2019-04-07T01:46:47.098Z,99.20
2019-04-07T01:49:01.065Z,99.80
2019-04-07T01:51:17.817Z,99.10
2019-04-07T01:53:25.787Z,99.20
2019-04-07T01:55:30.225Z,99.40
2019-04-07T01:57:50.794Z,99.40
2019-04-07T01:59:58.222Z,99.50
2019-04-07T02:02:02.627Z,99.50
2019-04-07T02:04:23.671Z,99.50
2019-04-07T02:06:31.123Z,99.30
2019-04-07T02:08:51.989Z,99.30
2019-04-07T02:11:11.404Z,99.50
2019-04-07T02:13:28.681Z,99.50
2019-04-07T02:15:51.299Z,99.40
2019-04-07T02:17:59.333Z,99.50
2019-04-07T02:20:07.814Z,99.40
2019-04-07T02:22:12.441Z,99.20
2019-04-07T02:24:16.869Z,99.40
2019-04-07T02:26:24.313Z,99.50
2019-04-07T02:28:35.047Z,99.30
2019-04-07T02:30:52.291Z,99.30
2019-04-07T02:32:56.742Z,99.60
2019-04-07T02:35:03.928Z,99.60
2019-04-07T02:37:12.017Z,99.70
2019-04-07T02:39:17.368Z,99.60
2019-04-07T02:41:26.111Z,99.70
2019-04-07T02:43:48.687Z,99.60
2019-04-07T02:45:59.825Z,99.60
2019-04-07T02:48:07.330Z,99.10
2019-04-07T02:50:12.457Z,98.80
2019-04-07T02:52:35.717Z,99.00
2019-04-07T02:54:43.274Z,98.80
2019-04-07T02:56:48.651Z,99.20
2019-04-07T02:58:53.151Z,99.30
2019-04-07T03:01:14.343Z,99.00
2019-04-07T03:03:18.905Z,98.80
2019-04-07T03:05:33.109Z,98.50
2019-04-07T03:07:37.842Z,98.90
2019-04-07T03:09:45.472Z,99.10
2019-04-07T03:11:53.056Z,99.20
2019-04-07T03:14:03.743Z,99.50
2019-04-07T03:16:08.424Z,99.90
2019-04-07T03:18:31.705Z,99.90
2019-04-07T03:20:36.256Z,99.90
2019-04-07T03:22:47.128Z,99.80
2019-04-07T03:24:58.291Z,99.60
2019-04-07T03:27:15.687Z,99.80
2019-04-07T03:29:20.280Z,99.90
2019-04-07T03:31:29.170Z,99.90
2019-04-07T03:33:51.836Z,99.90
2019-04-07T03:36:07.532Z,99.90
2019-04-07T03:38:17.015Z,99.30
2019-04-07T03:40:36.911Z,99.20
2019-04-07T03:42:57.606Z,99.40
2019-04-07T03:45:02.314Z,99.30
2019-04-07T03:47:07.168Z,99.90
2019-04-07T03:49:17.628Z,99.90
2019-04-07T03:51:24.893Z,99.80
2019-04-07T03:53:30.411Z,99.50
2019-04-07T03:55:40.927Z,99.60
2019-04-07T03:57:46.259Z,99.90
2019-04-07T04:00:08.456Z,99.80
2019-04-07T04:02:29.432Z,99.80
2019-04-07T04:04:39.791Z,99.70
2019-04-07T04:06:56.784Z,99.60
2019-04-07T04:09:02.087Z,99.50
2019-04-07T04:11:06.613Z,99.70
2019-04-07T04:13:17.079Z,99.90
2019-04-07T04:15:24.359Z,99.90
2019-04-07T04:17:28.288Z,99.80
2019-04-07T04:19:31.249Z,99.30
2019-04-07T04:21:34.149Z,99.30
2019-04-07T04:23:38.010Z,99.10
2019-04-07T04:25:41.434Z,99.20
2019-04-07T04:27:44.298Z,99.50
2019-04-07T04:29:51.515Z,99.60
2019-04-07T04:31:52.735Z,99.70
2019-04-07T04:33:55.808Z,99.90
2019-04-07T04:35:59.086Z,99.70
2019-04-07T04:38:02.092Z,99.60
2019-04-07T04:40:06.061Z,99.50
2019-04-07T04:42:08.840Z,99.80
2019-04-07T04:44:11.633Z,99.80
2019-04-07T04:46:15.078Z,99.90
2019-04-07T04:48:18.028Z,99.90
2019-04-07T04:50:21.190Z,99.90
2019-04-07T04:52:24.115Z,99.90
2019-04-07T04:54:27.752Z,99.90
2019-04-07T04:56:30.932Z,99.90
2019-04-07T04:58:34.707Z,99.90
2019-04-07T05:00:38.444Z,99.90
2019-04-07T05:02:41.402Z,99.80
2019-04-07T05:04:44.745Z,99.90
2019-04-07T05:06:47.866Z,99.90
2019-04-07T05:08:51.161Z,99.90
2019-04-07T05:10:54.139Z,99.90
2019-04-07T05:12:57.220Z,99.90
2019-04-07T05:15:00.378Z,99.90
2019-04-07T05:17:03.994Z,99.90
2019-04-07T05:19:06.948Z,99.90
2019-04-07T05:21:09.872Z,99.90
2019-04-07T05:23:13.010Z,99.90
2019-04-07T05:25:15.900Z,99.90
2019-04-07T05:27:18.769Z,99.90
2019-04-07T05:29:21.581Z,99.90
2019-04-07T05:31:24.653Z,99.90
2019-04-07T05:33:27.801Z,99.90
2019-04-07T05:35:30.701Z,99.90
2019-04-07T05:37:34.130Z,99.90
2019-04-07T05:39:37.220Z,99.90
2019-04-07T05:41:40.078Z,99.90
2019-04-07T05:43:42.879Z,99.90
2019-04-07T05:45:46.370Z,99.90
2019-04-07T05:47:50.797Z,99.80
2019-04-07T05:49:57.362Z,99.50
2019-04-07T05:52:01.394Z,99.80
2019-04-07T05:54:02.671Z,99.60
2019-04-07T05:56:06.107Z,99.80
2019-04-07T05:58:09.069Z,99.90
2019-04-07T06:00:15.704Z,99.90
2019-04-07T06:02:17.854Z,99.90
2019-04-07T06:04:20.692Z,99.90
2019-04-07T06:06:23.412Z,99.90
2019-04-07T06:08:33.969Z,99.90
2019-04-07T06:10:30.670Z,99.90
2019-04-07T06:12:33.898Z,99.90
2019-04-07T06:14:36.873Z,99.90
2019-04-07T06:16:39.708Z,99.90
2019-04-07T06:18:43.297Z,99.80
2019-04-07T06:20:46.685Z,99.90
2019-04-07T06:22:52.785Z,99.90
2019-04-07T06:24:53.964Z,99.90
2019-04-07T06:26:57.448Z,99.90
2019-04-07T06:29:00.370Z,99.90
2019-04-07T06:31:03.283Z,99.70
2019-04-07T06:33:07.276Z,99.20
2019-04-07T06:35:12.319Z,98.80
2019-04-07T06:37:14.965Z,98.60
2019-04-07T06:39:19.257Z,98.70
2019-04-07T06:41:27.032Z,98.80
2019-04-07T06:43:27.047Z,98.90
2019-04-07T06:45:31.638Z,98.70
2019-04-07T06:47:37.085Z,98.30
2019-04-07T06:49:58.561Z,98.40
2019-04-07T06:52:04.700Z,98.50
2019-04-07T06:54:12.297Z,98.30
2019-04-07T06:56:17.528Z,98.40
2019-04-07T06:58:41.717Z,98.40
2019-04-07T07:01:03.434Z,98.40
2019-04-07T07:03:16.745Z,98.40
2019-04-07T07:05:38.737Z,98.10
2019-04-07T07:07:55.234Z,98.10
2019-04-07T07:10:06.517Z,97.80
2019-04-07T07:12:19.933Z,97.80
2019-04-07T07:14:35.502Z,97.80
2019-04-07T07:16:46.155Z,97.80
2019-04-07T07:19:01.629Z,97.90
2019-04-07T07:21:08.213Z,98.10
2019-04-07T07:23:15.819Z,98.10
2019-04-07T07:25:18.972Z,97.90
2019-04-07T07:27:21.949Z,97.90
2019-04-07T07:29:26.618Z,97.80
2019-04-07T07:31:29.275Z,97.70
2019-04-07T07:33:32.127Z,97.60
2019-04-07T07:35:34.982Z,97.60
2019-04-07T07:37:37.888Z,97.30
2019-04-07T07:39:42.620Z,97.50
2019-04-07T07:41:45.701Z,97.50
2019-04-07T07:43:48.683Z,97.40
2019-04-07T07:45:52.218Z,97.00
2019-04-07T07:47:55.101Z,97.00
2019-04-07T07:49:58.636Z,96.90
2019-04-07T07:52:01.530Z,97.00
2019-04-07T07:54:04.662Z,96.80
2019-04-07T07:56:11.464Z,96.70
2019-04-07T07:58:12.302Z,96.70
2019-04-07T08:00:15.628Z,96.50
2019-04-07T08:02:19.913Z,96.50
2019-04-07T08:04:26.435Z,96.40
2019-04-07T08:06:27.554Z,96.40
2019-04-07T08:08:30.409Z,96.50
2019-04-07T08:10:33.216Z,96.10
2019-04-07T08:12:36.120Z,96.00
2019-04-07T08:14:38.947Z,96.10
2019-04-07T08:16:42.457Z,96.00
2019-04-07T08:18:46.447Z,95.90
2019-04-07T08:20:50.071Z,95.50
2019-04-07T08:22:52.936Z,95.50
2019-04-07T08:24:55.752Z,95.20
2019-04-07T08:26:59.432Z,95.50
2019-04-07T08:29:05.727Z,95.40
2019-04-07T08:31:07.390Z,95.30
2019-04-07T08:33:10.199Z,95.00
2019-04-07T08:35:13.135Z,95.30
2019-04-07T08:37:16.253Z,94.90
2019-04-07T08:39:24.383Z,94.70
2019-04-07T08:41:23.553Z,94.70
2019-04-07T08:43:26.563Z,94.70
2019-04-07T08:45:31.685Z,94.60
2019-04-07T08:47:34.359Z,94.40
2019-04-07T08:49:38.073Z,94.30
2019-04-07T08:51:41.619Z,94.40
2019-04-07T08:53:45.113Z,94.10
2019-04-07T08:55:49.758Z,94.10
2019-04-07T08:57:52.362Z,94.20
2019-04-07T08:59:55.312Z,93.90
2019-04-07T09:01:58.151Z,94.00
2019-04-07T09:04:01.215Z,93.50
2019-04-07T09:06:04.750Z,93.80
2019-04-07T09:08:07.872Z,93.70
2019-04-07T09:10:12.621Z,93.50
2019-04-07T09:12:15.383Z,93.40
2019-04-07T09:14:18.456Z,93.40
2019-04-07T09:16:23.548Z,93.50
2019-04-07T09:18:30.815Z,92.90
2019-04-07T09:20:46.146Z,92.80
2019-04-07T09:22:53.276Z,92.90
2019-04-07T09:25:09.621Z,93.00
2019-04-07T09:27:20.981Z,92.60
2019-04-07T09:29:26.131Z,92.00
2019-04-07T09:31:33.200Z,91.60
2019-04-07T09:33:48.975Z,92.40
2019-04-07T09:35:56.741Z,92.10
2019-04-07T09:38:14.378Z,91.80
2019-04-07T09:40:18.936Z,91.60
2019-04-07T09:42:25.707Z,90.90
2019-04-07T09:44:33.972Z,90.90
2019-04-07T09:46:48.352Z,91.00
2019-04-07T09:48:59.961Z,90.80
2019-04-07T09:51:07.158Z,90.60
2019-04-07T09:53:17.981Z,90.50
2019-04-07T09:55:36.737Z,91.00
2019-04-07T09:57:57.743Z,89.80
2019-04-07T10:00:07.153Z,88.90
2019-04-07T10:02:16.648Z,90.00
2019-04-07T10:04:21.074Z,89.30
2019-04-07T10:06:39.283Z,88.60
2019-04-07T10:09:01.035Z,87.60
2019-04-07T10:11:08.493Z,85.00
2019-04-07T10:13:13.530Z,84.30
2019-04-07T10:15:18.703Z,84.90
2019-04-07T10:17:23.314Z,84.80
2019-04-07T10:19:43.070Z,83.80
2019-04-07T10:21:47.564Z,83.40
2019-04-07T10:23:55.230Z,84.30
2019-04-07T10:26:00.573Z,83.90
2019-04-07T10:28:12.883Z,83.30
2019-04-07T10:30:21.109Z,83.90
2019-04-07T10:32:28.220Z,84.40
2019-04-07T10:34:49.756Z,84.00
2019-04-07T10:37:04.861Z,82.40
2019-04-07T10:39:09.295Z,79.70
2019-04-07T10:41:30.495Z,80.60
2019-04-07T10:43:42.367Z,80.10
2019-04-07T10:45:50.549Z,81.00
2019-04-07T10:48:01.390Z,81.60
2019-04-07T10:50:24.569Z,81.60
2019-04-07T10:52:37.869Z,80.80
2019-04-07T10:54:45.207Z,81.20
2019-04-07T10:56:49.805Z,81.30
2019-04-07T10:58:56.950Z,80.90
2019-04-07T11:01:01.499Z,81.50
2019-04-07T11:03:23.014Z,80.40
2019-04-07T11:05:27.962Z,79.20
2019-04-07T11:07:44.626Z,81.00
2019-04-07T11:09:52.098Z,82.50
2019-04-07T11:12:08.851Z,80.80
2019-04-07T11:14:29.718Z,80.70
2019-04-07T11:16:46.985Z,80.60
2019-04-07T11:18:51.798Z,80.90
2019-04-07T11:21:09.524Z,80.40
2019-04-07T11:23:14.089Z,80.30
2019-04-07T11:25:21.678Z,78.40
2019-04-07T11:27:42.525Z,78.00
2019-04-07T11:30:05.262Z,79.40
2019-04-07T11:32:24.549Z,79.70
2019-04-07T11:34:47.136Z,78.30
2019-04-07T11:36:51.801Z,78.90
2019-04-07T11:38:56.334Z,79.40
2019-04-07T11:41:01.555Z,80.00
2019-04-07T11:43:09.019Z,79.20
2019-04-07T11:45:25.843Z,79.30
2019-04-07T11:47:42.771Z,78.30
2019-04-07T11:49:47.279Z,75.90
2019-04-07T11:51:52.373Z,76.40
2019-04-07T11:53:57.715Z,73.40
2019-04-07T11:56:11.539Z,74.50
2019-04-07T11:58:32.291Z,73.90
2019-04-07T12:00:51.524Z,73.60
2019-04-07T12:03:02.871Z,73.40
2019-04-07T12:05:08.380Z,70.50
2019-04-07T12:07:25.108Z,71.80
2019-04-07T12:09:30.414Z,72.70
2019-04-07T12:12:02.506Z,72.80
2019-04-07T12:14:07.373Z,70.00
2019-04-07T12:16:11.932Z,70.60
2019-04-07T12:18:18.854Z,70.40
2019-04-07T12:20:32.349Z,70.70
2019-04-07T12:22:45.433Z,70.90
2019-04-07T12:25:03.226Z,70.40
2019-04-07T12:27:17.248Z,69.30
2019-04-07T12:29:25.410Z,69.80
2019-04-07T12:31:29.953Z,71.30
2019-04-07T12:33:37.447Z,69.00
2019-04-07T12:35:50.977Z,67.70
2019-04-07T12:37:52.185Z,68.00
2019-04-07T12:40:09.304Z,68.30
2019-04-07T12:42:14.629Z,70.00
2019-04-07T12:44:21.871Z,67.20
2019-04-07T12:46:26.312Z,67.20
2019-04-07T12:48:37.002Z,66.30
2019-04-07T12:50:54.052Z,67.20
2019-04-07T12:53:08.068Z,65.90
2019-04-07T12:55:16.950Z,66.00
2019-04-07T12:57:18.862Z,64.10
2019-04-07T12:59:23.861Z,66.20
2019-04-07T13:01:48.206Z,65.00
2019-04-07T13:04:03.597Z,65.10
2019-04-07T13:06:14.607Z,65.60
2019-04-07T13:08:22.501Z,65.70
2019-04-07T13:10:42.913Z,67.10
2019-04-07T13:12:53.602Z,64.50
2019-04-07T13:15:00.088Z,64.30
2019-04-07T13:17:07.640Z,64.60
2019-04-07T13:19:21.339Z,62.60
2019-04-07T13:21:34.629Z,64.80
2019-04-07T13:23:51.455Z,64.40
2019-04-07T13:26:05.145Z,63.70
2019-04-07T13:28:12.614Z,64.00
2019-04-07T13:30:18.148Z,62.70
2019-04-07T13:32:37.109Z,63.70
2019-04-07T13:34:49.774Z,63.30
2019-04-07T13:37:12.424Z,63.60
2019-04-07T13:39:39.192Z,64.50
2019-04-07T13:41:47.197Z,65.30
2019-04-07T13:44:07.697Z,64.60
2019-04-07T13:46:19.341Z,63.60
2019-04-07T13:48:21.281Z,64.80
2019-04-07T13:50:42.356Z,65.10
2019-04-07T13:52:48.637Z,64.00
2019-04-07T13:54:53.666Z,63.60
2019-04-07T13:57:04.468Z,63.90
2019-04-07T13:59:14.929Z,64.00
2019-04-07T14:01:32.559Z,62.80
2019-04-07T14:03:40.663Z,62.10
2019-04-07T14:06:04.440Z,62.70
2019-04-07T14:08:27.176Z,58.40
2019-04-07T14:10:35.248Z,58.60
2019-04-07T14:12:54.404Z,57.00
2019-04-07T14:15:15.886Z,56.90
2019-04-07T14:17:37.347Z,55.70
2019-04-07T14:19:54.116Z,55.30
2019-04-07T14:22:02.170Z,56.60
2019-04-07T14:24:23.893Z,57.80
2019-04-07T14:26:30.175Z,58.40
2019-04-07T14:28:50.968Z,60.00
2019-04-07T14:31:13.759Z,57.90
2019-04-07T14:33:28.699Z,58.50
2019-04-07T14:35:33.443Z,58.40
2019-04-07T14:37:43.674Z,58.20
2019-04-07T14:39:56.908Z,57.70
2019-04-07T14:42:18.717Z,58.60
2019-04-07T14:44:25.898Z,56.00
2019-04-07T14:46:37.137Z,56.10
2019-04-07T14:48:58.908Z,56.80
2019-04-07T14:51:19.986Z,55.00
2019-04-07T14:53:27.584Z,55.50
2019-04-07T14:55:32.531Z,54.70
2019-04-07T14:57:41.525Z,54.10
2019-04-07T15:00:03.363Z,55.30
2019-04-07T15:02:07.308Z,55.50
2019-04-07T15:04:10.795Z,56.80
2019-04-07T15:06:13.628Z,58.20
2019-04-07T15:08:18.096Z,59.90
2019-04-07T15:10:25.360Z,61.00
2019-04-07T15:12:39.241Z,59.00
2019-04-07T15:14:42.715Z,61.60
2019-04-07T15:16:45.554Z,61.90
2019-04-07T15:18:48.354Z,62.10
2019-04-07T15:20:51.673Z,60.90
2019-04-07T15:22:54.467Z,57.60
2019-04-07T15:24:58.070Z,55.20
2019-04-07T15:27:00.976Z,52.60
2019-04-07T15:29:06.988Z,51.40
2019-04-07T15:31:08.604Z,51.10
2019-04-07T15:33:11.978Z,52.20
2019-04-07T15:35:15.506Z,51.40
2019-04-07T15:37:21.616Z,52.20
2019-04-07T15:39:25.678Z,52.80
2019-04-07T15:41:28.044Z,53.80
2019-04-07T15:43:33.251Z,54.20
2019-04-07T15:45:36.511Z,54.90
2019-04-07T15:47:40.256Z,55.00
2019-04-07T15:49:43.411Z,55.20
2019-04-07T15:51:46.273Z,53.90
2019-04-07T15:53:51.595Z,55.10
2019-04-07T15:56:02.042Z,56.70
2019-04-07T15:57:59.358Z,57.40
2019-04-07T16:00:04.015Z,58.80
2019-04-07T16:02:10.103Z,58.80
2019-04-07T16:04:11.759Z,59.30
2019-04-07T16:06:16.301Z,59.50
2019-04-07T16:08:20.072Z,59.50
2019-04-07T16:10:23.943Z,58.60
2019-04-07T16:12:27.568Z,57.70
2019-04-07T16:14:30.951Z,58.30
2019-04-07T16:16:33.934Z,59.00
2019-04-07T16:18:39.473Z,58.60
2019-04-07T16:20:41.643Z,58.50
2019-04-07T16:22:47.047Z,58.50
2019-04-07T16:24:51.605Z,58.90
2019-04-07T16:26:53.499Z,57.80
2019-04-07T16:28:57.310Z,58.10
2019-04-07T16:31:00.211Z,57.90
2019-04-07T16:33:05.454Z,58.70
2019-04-07T16:35:10.407Z,59.60
2019-04-07T16:37:12.234Z,60.10
2019-04-07T16:39:15.800Z,60.20
2019-04-07T16:41:18.783Z,61.30
2019-04-07T16:43:24.087Z,60.40
2019-04-07T16:45:27.211Z,61.30
2019-04-07T16:47:34.547Z,61.20
2019-04-07T16:49:34.534Z,63.70
2019-04-07T16:51:38.320Z,65.70
2019-04-07T16:53:42.990Z,67.40
2019-04-07T16:55:48.935Z,69.20
2019-04-07T16:57:50.388Z,69.60
2019-04-07T16:59:54.181Z,69.50
2019-04-07T17:01:58.003Z,70.10
2019-04-07T17:04:00.887Z,71.40
2019-04-07T17:06:03.969Z,72.70
2019-04-07T17:08:07.396Z,72.90
2019-04-07T17:10:11.212Z,74.50
2019-04-07T17:12:14.934Z,74.60
2019-04-07T17:14:18.419Z,75.30
2019-04-07T17:16:24.667Z,77.70
2019-04-07T17:18:36.765Z,77.90
2019-04-07T17:20:39.697Z,78.40
2019-04-07T17:22:45.911Z,79.50
2019-04-07T17:24:47.766Z,79.30
2019-04-07T17:26:50.665Z,80.10
2019-04-07T17:28:55.699Z,79.60
2019-04-07T17:30:59.023Z,81.30
2019-04-07T17:33:03.210Z,80.70
2019-04-07T17:35:08.168Z,81.30
2019-04-07T17:37:11.757Z,80.80
2019-04-07T17:39:19.314Z,80.60
2019-04-07T17:41:22.119Z,81.40
2019-04-07T17:43:40.551Z,82.70
2019-04-07T17:45:37.811Z,83.60
2019-04-07T17:47:45.253Z,84.20
2019-04-07T17:49:56.671Z,83.70
2019-04-07T17:51:59.021Z,83.20
2019-04-07T17:54:03.446Z,83.30
2019-04-07T17:56:20.002Z,83.30
2019-04-07T17:58:26.309Z,83.90
2019-04-07T18:00:50.247Z,85.50
2019-04-07T18:02:57.200Z,85.60
2019-04-07T18:05:06.226Z,86.60
2019-04-07T18:07:27.455Z,87.20
2019-04-07T18:09:44.862Z,88.00
2019-04-07T18:12:01.246Z,89.10
2019-04-07T18:14:11.515Z,89.30
2019-04-07T18:16:17.047Z,89.50
2019-04-07T18:18:26.357Z,90.10
2019-04-07T18:20:46.916Z,90.20
2019-04-07T18:23:07.780Z,90.10
2019-04-07T18:25:32.133Z,90.20
2019-04-07T18:27:38.295Z,90.40
2019-04-07T18:29:52.733Z,90.60
2019-04-07T18:32:14.520Z,90.60
2019-04-07T18:34:25.758Z,90.90
2019-04-07T18:36:40.600Z,90.90
2019-04-07T18:39:03.146Z,90.90
2019-04-07T18:41:11.173Z,91.10
2019-04-07T18:43:32.371Z,91.20
2019-04-07T18:45:36.816Z,91.20
2019-04-07T18:47:52.308Z,91.50
2019-04-07T18:50:12.445Z,91.60
2019-04-07T18:52:20.636Z,91.70
2019-04-07T18:54:25.617Z,91.90
2019-04-07T18:56:42.846Z,92.10
2019-04-07T18:59:04.304Z,92.30
2019-04-07T19:01:18.196Z,92.30
2019-04-07T19:03:25.431Z,92.70
2019-04-07T19:05:39.042Z,92.60
2019-04-07T19:07:48.548Z,92.70
2019-04-07T19:10:09.530Z,92.80
2019-04-07T19:12:18.467Z,92.80
2019-04-07T19:14:40.200Z,92.80
2019-04-07T19:16:49.270Z,92.90
2019-04-07T19:19:08.941Z,92.90
2019-04-07T19:21:16.552Z,92.90
2019-04-07T19:23:36.366Z,92.70
2019-04-07T19:25:57.775Z,92.60
2019-04-07T19:28:09.310Z,92.70
2019-04-07T19:30:26.575Z,92.70
2019-04-07T19:32:46.382Z,93.20
2019-04-07T19:34:50.981Z,93.10
2019-04-07T19:37:15.608Z,93.10
2019-04-07T19:39:24.927Z,93.20
2019-04-07T19:41:35.413Z,93.30
2019-04-07T19:43:45.914Z,93.40
2019-04-07T19:45:55.148Z,93.40
2019-04-07T19:48:16.124Z,93.50
2019-04-07T19:50:37.086Z,93.50
2019-04-07T19:52:47.713Z,93.50
2019-04-07T19:54:55.089Z,93.80
2019-04-07T19:57:15.927Z,93.90
2019-04-07T19:59:20.403Z,93.90
2019-04-07T20:01:29.197Z,94.30
2019-04-07T20:03:37.792Z,93.80
2019-04-07T20:05:40.806Z,93.80
2019-04-07T20:07:48.507Z,93.80
2019-04-07T20:09:53.016Z,93.80
2019-04-07T20:12:00.580Z,93.80
2019-04-07T20:14:18.534Z,93.90
2019-04-07T20:16:35.076Z,93.90
2019-04-07T20:18:45.968Z,93.90
2019-04-07T20:20:50.647Z,93.80
2019-04-07T20:23:02.125Z,93.60
2019-04-07T20:25:19.033Z,94.00
2019-04-07T20:27:26.113Z,93.80
2019-04-07T20:29:34.125Z,94.10
2019-04-07T20:31:54.757Z,94.30
2019-04-07T20:34:05.995Z,94.40
2019-04-07T20:36:27.759Z,94.40
2019-04-07T20:38:32.402Z,94.50
2019-04-07T20:40:52.241Z,94.60
2019-04-07T20:43:08.943Z,94.60
2019-04-07T20:45:17.516Z,94.70
2019-04-07T20:47:23.007Z,94.90
2019-04-07T20:49:44.713Z,95.30
2019-04-07T20:51:55.302Z,95.00
2019-04-07T20:54:11.572Z,95.10
2019-04-07T20:56:25.031Z,95.20
2019-04-07T20:58:55.255Z,95.20
2019-04-07T21:01:04.894Z,95.30
2019-04-07T21:03:20.322Z,95.40
2019-04-07T21:05:25.718Z,95.50
2019-04-07T21:07:41.752Z,95.60
2019-04-07T21:09:48.863Z,95.80
2019-04-07T21:11:56.772Z,95.90
2019-04-07T21:14:04.458Z,96.50
2019-04-07T21:16:11.925Z,96.10
2019-04-07T21:18:32.620Z,96.10
2019-04-07T21:20:38.957Z,95.80
2019-04-07T21:22:44.286Z,95.50
2019-04-07T21:24:58.709Z,95.60
2019-04-07T21:27:06.125Z,95.80
2019-04-07T21:29:22.547Z,95.90
2019-04-07T21:31:33.284Z,96.00
2019-04-07T21:33:56.618Z,95.60
2019-04-07T21:36:09.484Z,95.50
2019-04-07T21:38:13.563Z,95.80
2019-04-07T21:40:24.388Z,95.30
2019-04-07T21:42:34.618Z,95.00
2019-04-07T21:44:55.271Z,95.00
2019-04-07T21:47:17.935Z,94.80
2019-04-07T21:49:32.777Z,95.10
2019-04-07T21:51:46.584Z,95.50
2019-04-07T21:53:49.741Z,95.70
2019-04-07T21:55:54.185Z,95.90
2019-04-07T21:58:08.347Z,96.00
2019-04-07T22:00:16.689Z,96.10
2019-04-07T22:02:31.177Z,96.10
2019-04-07T22:04:54.611Z,96.20
2019-04-07T22:06:59.545Z,96.30
2019-04-07T22:09:23.231Z,96.40
2019-04-07T22:11:28.981Z,96.50
2019-04-07T22:13:32.902Z,96.60
2019-04-07T22:15:43.086Z,96.50
2019-04-07T22:17:40.641Z,96.50
2019-04-07T22:19:46.288Z,96.60
2019-04-07T22:21:48.118Z,96.70
2019-04-07T22:23:50.941Z,96.90
2019-04-07T22:25:54.093Z,97.00
2019-04-07T22:27:57.535Z,97.20
2019-04-07T22:30:02.192Z,97.10
2019-04-07T22:32:05.317Z,97.30
2019-04-07T22:34:08.984Z,97.10
2019-04-07T22:36:14.181Z,97.10
2019-04-07T22:38:17.563Z,97.10
2019-04-07T22:40:21.389Z,97.40
2019-04-07T22:42:24.364Z,97.50
2019-04-07T22:44:27.320Z,97.40
2019-04-07T22:46:30.999Z,97.00
2019-04-07T22:48:34.429Z,97.20
2019-04-07T22:50:38.468Z,97.00
2019-04-07T22:52:41.891Z,96.80
2019-04-07T22:54:44.762Z,96.50
2019-04-07T22:56:47.551Z,97.00
2019-04-07T22:58:50.333Z,97.00
2019-04-07T23:00:54.248Z,97.20
2019-04-07T23:02:57.133Z,96.40
2019-04-07T23:05:00.814Z,96.50
2019-04-07T23:07:04.089Z,96.70
2019-04-07T23:09:07.894Z,96.90
2019-04-07T23:11:10.784Z,97.00
2019-04-07T23:13:13.564Z,97.40
2019-04-07T23:15:16.623Z,97.40
2019-04-07T23:17:19.748Z,97.50
2019-04-07T23:19:22.795Z,97.30
2019-04-07T23:21:25.603Z,97.40
2019-04-07T23:23:28.505Z,97.50
2019-04-07T23:25:32.191Z,97.70
2019-04-07T23:27:35.963Z,97.80
2019-04-07T23:29:38.861Z,97.80
2019-04-07T23:31:41.715Z,97.90
2019-04-07T23:33:44.528Z,97.90
2019-04-07T23:35:47.320Z,97.90
2019-04-07T23:37:50.905Z,97.90
2019-04-07T23:39:53.822Z,98.20
2019-04-07T23:41:57.463Z,98.10
2019-04-07T23:44:00.998Z,98.10
2019-04-07T23:46:05.002Z,98.00
2019-04-07T23:48:08.354Z,97.40
2019-04-07T23:50:11.353Z,97.30
2019-04-07T23:52:14.557Z,97.30
2019-04-07T23:54:18.292Z,97.30
2019-04-07T23:56:21.226Z,97.40
2019-04-07T23:58:24.074Z,97.50
